Time;durP1;ratioP1;P1;durP2;ratioP2;P2;SDS_P1;SDS_P2;PMS_P1;PMS_P2;Temp;Humidity;BMP_temperature;BMP_pressure;BME280_temperature;BME280_humidity;BME280_pressure;Samples;Min_cycle;Max_cycle;Signal;HPM_P1;HPM_P2
2022/05/15 00:01:23;;;;;;;0.50;0.30;;;;;;;16.22;100.00;95470.69;5113743;28;20867;-57
2022/05/15 00:03:53;;;;;;;0.40;0.30;;;;;;;16.39;100.00;95468.19;5113382;28;20477;-57
2022/05/15 00:06:21;;;;;;;0.50;0.30;;;;;;;16.55;100.00;95464.09;5112065;28;20518;-57
2022/05/15 00:08:50;;;;;;;0.50;0.30;;;;;;;16.50;100.00;95456.97;5113258;28;20794;-57
2022/05/15 00:11:18;;;;;;;1.33;1.23;;;;;;;16.47;100.00;95464.78;5113304;28;20454;-56
2022/05/15 00:13:48;;;;;;;0.40;0.30;;;;;;;16.32;100.00;95459.78;5113211;28;20522;-57
2022/05/15 00:16:18;;;;;;;0.93;0.57;;;;;;;16.20;100.00;95459.50;5113299;28;20495;-57
2022/05/15 00:18:47;;;;;;;0.77;0.50;;;;;;;16.35;100.00;95464.53;5113323;28;20431;-57
2022/05/15 00:21:17;;;;;;;0.50;0.30;;;;;;;16.21;100.00;95410.28;5113223;28;20454;-57
2022/05/15 00:23:45;;;;;;;0.43;0.27;;;;;;;16.45;100.00;95457.06;5112961;28;21044;-57
2022/05/15 00:26:14;;;;;;;0.50;0.40;;;;;;;16.66;100.00;95462.78;5113124;28;20462;-57
2022/05/15 00:28:42;;;;;;;0.40;0.20;;;;;;;16.44;100.00;95468.09;5113036;28;20514;-57
2022/05/15 00:31:11;;;;;;;0.60;0.60;;;;;;;16.26;100.00;95472.50;5113023;28;20861;-57
2022/05/15 00:33:40;;;;;;;0.40;0.37;;;;;;;16.59;100.00;95467.78;5112928;28;20423;-57
2022/05/15 00:36:08;;;;;;;0.40;0.30;;;;;;;16.53;100.00;95466.28;5112853;28;20424;-57
2022/05/15 00:38:38;;;;;;;0.40;0.30;;;;;;;16.36;100.00;95466.91;5113215;28;20478;-57
2022/05/15 00:41:08;;;;;;;0.50;0.30;;;;;;;16.38;100.00;95454.03;5112689;28;20440;-57
2022/05/15 00:43:45;;;;;;;0.40;0.20;;;;;;;16.17;100.00;95468.13;5113003;28;20467;-57
2022/05/15 00:46:17;;;;;;;0.53;0.53;;;;;;;15.81;100.00;95478.78;5112674;28;20419;-56
2022/05/15 00:48:47;;;;;;;0.87;0.87;;;;;;;16.08;100.00;95464.59;5112460;28;20423;-56
2022/05/15 00:51:23;;;;;;;0.40;0.20;;;;;;;16.30;100.00;95465.44;5112396;28;20893;-56
2022/05/15 00:53:56;;;;;;;0.57;0.30;;;;;;;16.36;100.00;95461.56;5112466;28;20940;-56
2022/05/15 00:56:29;;;;;;;1.43;1.43;;;;;;;16.29;100.00;95457.72;5111877;28;20780;-56
2022/05/15 00:59:01;;;;;;;0.40;0.23;;;;;;;16.32;100.00;95463.25;5112782;28;20506;-56
2022/05/15 01:01:29;;;;;;;0.40;0.27;;;;;;;16.17;100.00;95452.88;5112717;28;20503;-57
2022/05/15 01:03:58;;;;;;;0.40;0.30;;;;;;;16.10;100.00;95459.72;5112694;28;20481;-56
2022/05/15 01:06:26;;;;;;;0.80;0.67;;;;;;;16.23;100.00;95456.25;5112815;28;20455;-56
2022/05/15 01:08:57;;;;;;;1.13;0.30;;;;;;;16.23;100.00;95446.34;5111935;28;20459;-56
2022/05/15 01:11:25;;;;;;;0.90;0.90;;;;;;;16.19;100.00;95460.63;5112707;28;20458;-56
2022/05/15 01:13:54;;;;;;;0.43;0.30;;;;;;;16.03;100.00;95457.47;5112146;28;20482;-56
2022/05/15 01:16:25;;;;;;;0.47;0.27;;;;;;;15.97;100.00;95433.81;5112436;28;20467;-56
2022/05/15 01:18:59;;;;;;;0.40;0.30;;;;;;;16.13;100.00;95457.25;5112252;28;20474;-56
2022/05/15 01:21:33;;;;;;;0.60;0.60;;;;;;;16.06;100.00;95446.19;5112310;28;20431;-56
2022/05/15 01:24:02;;;;;;;0.40;0.40;;;;;;;15.94;100.00;95450.47;5112149;28;20502;-56
2022/05/15 01:26:32;;;;;;;0.40;0.30;;;;;;;15.75;100.00;95453.25;5112174;28;20431;-56
2022/05/15 01:29:01;;;;;;;0.40;0.20;;;;;;;15.89;100.00;95452.13;5112504;28;20876;-56
2022/05/15 01:31:29;;;;;;;0.40;0.30;;;;;;;16.00;100.00;95442.03;5112019;28;20458;-56
2022/05/15 01:33:59;;;;;;;2.23;0.50;;;;;;;16.21;100.00;95453.88;5112219;28;20428;-56
2022/05/15 01:36:29;;;;;;;0.40;0.20;;;;;;;15.49;100.00;95323.94;5112512;28;20423;-56
2022/05/15 01:38:57;;;;;;;0.40;0.30;;;;;;;16.28;100.00;95448.91;5112468;28;20814;-56
2022/05/15 01:41:27;;;;;;;0.40;0.30;;;;;;;16.18;100.00;95443.78;5112157;28;20891;-56
2022/05/15 01:43:55;;;;;;;0.50;0.40;;;;;;;15.75;100.00;95451.38;5113048;28;20550;-55
2022/05/15 01:46:27;;;;;;;0.60;0.40;;;;;;;15.87;100.00;95437.50;5115306;28;20455;-55
2022/05/15 01:48:59;;;;;;;0.40;0.27;;;;;;;16.13;100.00;95446.56;5112575;28;20470;-56
2022/05/15 01:51:29;;;;;;;0.40;0.20;;;;;;;16.26;100.00;95444.94;5112352;28;20432;-56
2022/05/15 01:53:57;;;;;;;0.40;0.20;;;;;;;16.31;100.00;95436.81;5112037;28;20471;-56
2022/05/15 01:56:26;;;;;;;0.40;0.40;;;;;;;16.34;100.00;95439.66;5110983;28;20435;-56
2022/05/15 01:58:54;;;;;;;0.40;0.30;;;;;;;16.31;100.00;95447.50;5112026;28;20481;-56
2022/05/15 02:01:23;;;;;;;0.50;0.50;;;;;;;15.95;100.00;95396.69;5111890;28;20424;-56
2022/05/15 02:03:51;;;;;;;0.53;0.53;;;;;;;16.29;100.00;95445.13;5112917;28;20466;-56
2022/05/15 02:06:20;;;;;;;0.60;0.60;;;;;;;15.95;100.00;95450.16;5115816;28;20442;-56
2022/05/15 02:08:50;;;;;;;0.40;0.30;;;;;;;15.48;100.00;95454.06;5116045;28;20427;-56
2022/05/15 02:11:18;;;;;;;0.50;0.50;;;;;;;14.45;100.00;95263.22;5115754;28;20455;-56
2022/05/15 02:13:46;;;;;;;0.50;0.50;;;;;;;15.78;100.00;95453.44;5115879;28;21051;-56
2022/05/15 02:16:15;;;;;;;0.90;0.40;;;;;;;15.31;100.00;95444.97;5115848;28;20474;-56
2022/05/15 02:18:44;;;;;;;0.80;0.50;;;;;;;15.55;100.00;95453.66;5115509;28;20470;-56
2022/05/15 02:21:13;;;;;;;0.40;0.30;;;;;;;15.71;100.00;95449.59;5115529;28;20468;-56
2022/05/15 02:23:41;;;;;;;0.40;0.30;;;;;;;15.74;100.00;95448.97;5115370;28;21023;-56
2022/05/15 02:26:11;;;;;;;0.60;0.60;;;;;;;15.80;100.00;95450.47;5115456;28;20458;-56
2022/05/15 02:28:39;;;;;;;0.73;0.57;;;;;;;15.80;100.00;95461.16;5114523;28;20476;-56
2022/05/15 02:31:08;;;;;;;0.50;0.50;;;;;;;15.14;100.00;95457.03;5115539;28;20455;-56
2022/05/15 02:33:37;;;;;;;0.63;0.40;;;;;;;15.21;100.00;95468.13;5115333;28;20423;-55
2022/05/15 02:36:06;;;;;;;0.63;0.63;;;;;;;15.09;100.00;95467.81;5115644;28;20571;-56
2022/05/15 02:38:37;;;;;;;0.47;0.43;;;;;;;15.21;100.00;95462.78;5115251;28;20941;-55
2022/05/15 02:41:05;;;;;;;0.50;0.30;;;;;;;15.45;100.00;95465.31;5115102;28;20485;-55
2022/05/15 02:43:35;;;;;;;0.87;0.87;;;;;;;15.55;100.00;95461.66;5115366;28;20884;-55
2022/05/15 02:46:04;;;;;;;1.17;1.17;;;;;;;15.57;100.00;95470.16;5115284;28;20511;-55
2022/05/15 02:51:18;;;;;;;1.73;0.67;;;;;;;15.44;100.00;95482.38;5115405;28;20565;-56
2022/05/15 02:53:47;;;;;;;0.40;0.30;;;;;;;15.57;100.00;95480.84;5115001;28;20474;-55
2022/05/15 02:56:19;;;;;;;1.70;1.00;;;;;;;14.19;100.00;95250.59;5115005;28;20908;-55
2022/05/15 02:58:49;;;;;;;0.40;0.30;;;;;;;15.65;100.00;95480.16;5114733;28;20467;-55
2022/05/15 03:01:18;;;;;;;0.80;0.80;;;;;;;15.24;100.00;95419.47;5114954;28;20519;-55
2022/05/15 03:03:47;;;;;;;0.70;0.60;;;;;;;15.48;100.00;95451.38;5114687;28;20504;-55
2022/05/15 03:06:17;;;;;;;1.93;0.40;;;;;;;15.19;100.00;95413.44;5114967;28;20423;-56
2022/05/15 03:08:48;;;;;;;0.50;0.30;;;;;;;15.58;100.00;95482.44;5114583;28;20423;-55
2022/05/15 03:11:17;;;;;;;0.40;0.33;;;;;;;15.15;100.00;95415.13;5114713;28;20420;-55
2022/05/15 03:13:48;;;;;;;0.40;0.30;;;;;;;15.63;100.00;95491.16;5114749;28;20431;-55
2022/05/15 03:16:18;;;;;;;0.40;0.30;;;;;;;15.42;100.00;95465.88;5114179;28;20478;-56
2022/05/15 03:18:49;;;;;;;0.43;0.40;;;;;;;15.55;100.00;95488.38;5114365;28;20918;-55
2022/05/15 03:21:29;;;;;;;0.60;0.60;;;;;;;15.28;100.00;95481.88;5114386;28;20471;-55
2022/05/15 03:23:59;;;;;;;0.50;0.40;;;;;;;14.95;100.00;95416.25;5114430;28;20554;-55
2022/05/15 03:26:29;;;;;;;0.40;0.27;;;;;;;15.53;100.00;95490.56;5114589;28;20842;-56
2022/05/15 03:28:59;;;;;;;0.40;0.20;;;;;;;15.52;100.00;95488.97;5114292;28;20420;-55
2022/05/15 03:31:28;;;;;;;0.40;0.30;;;;;;;15.57;100.00;95504.88;5113843;28;20432;-55
2022/05/15 03:33:56;;;;;;;0.57;0.30;;;;;;;15.49;100.00;95514.38;5114139;28;20665;-55
2022/05/15 03:36:26;;;;;;;0.40;0.30;;;;;;;15.57;100.00;95507.56;5114286;28;20455;-55
2022/05/15 03:38:55;;;;;;;0.40;0.37;;;;;;;15.63;100.00;95517.09;5114118;28;20470;-55
2022/05/15 03:41:23;;;;;;;0.40;0.20;;;;;;;15.62;100.00;95515.50;5114440;28;20510;-55
2022/05/15 03:43:52;;;;;;;0.80;0.47;;;;;;;15.64;100.00;95515.97;5113767;28;20985;-55
2022/05/15 03:46:22;;;;;;;1.40;0.47;;;;;;;15.68;100.00;95514.31;5114259;28;20447;-55
2022/05/15 03:48:50;;;;;;;0.50;0.50;;;;;;;15.74;100.00;95521.94;5114070;28;20455;-56
2022/05/15 03:51:19;;;;;;;0.40;0.30;;;;;;;15.70;100.00;95512.13;5114294;28;20428;-55
2022/05/15 03:53:47;;;;;;;0.40;0.30;;;;;;;15.78;100.00;95508.78;5114666;28;20459;-55
2022/05/15 03:56:16;;;;;;;0.40;0.30;;;;;;;15.65;100.00;95501.53;5114164;28;20470;-55
2022/05/15 03:58:50;;;;;;;1.00;0.50;;;;;;;15.72;100.00;95518.75;5114031;28;20419;-56
2022/05/15 04:01:19;;;;;;;0.50;0.40;;;;;;;15.65;100.00;95520.25;5113745;28;20428;-56
2022/05/15 04:03:49;;;;;;;0.40;0.30;;;;;;;15.61;100.00;95529.94;5113699;28;20511;-56
2022/05/15 04:06:17;;;;;;;0.50;0.40;;;;;;;15.65;100.00;95538.94;5113601;28;20434;-56
2022/05/15 04:08:46;;;;;;;1.60;0.60;;;;;;;15.75;100.00;95525.41;5113228;28;20844;-55
2022/05/15 04:11:14;;;;;;;0.40;0.20;;;;;;;15.82;100.00;95525.78;5113952;28;20458;-55
2022/05/15 04:13:42;;;;;;;0.40;0.20;;;;;;;16.04;100.00;95544.59;5113369;28;20468;-55
2022/05/15 04:16:11;;;;;;;0.40;0.30;;;;;;;16.14;100.00;95536.38;5113516;28;20890;-55
2022/05/15 04:18:39;;;;;;;0.40;0.20;;;;;;;16.14;100.00;95528.34;5113148;28;20932;-56
2022/05/15 04:21:10;;;;;;;0.47;0.40;;;;;;;16.21;100.00;95538.66;5112700;28;20522;-55
2022/05/15 04:23:38;;;;;;;0.50;0.40;;;;;;;16.36;100.00;95549.03;5113265;28;20782;-55
2022/05/15 04:26:07;;;;;;;0.50;0.30;;;;;;;16.50;100.00;95544.44;5113000;28;20511;-55
2022/05/15 04:28:35;;;;;;;0.40;0.27;;;;;;;16.71;100.00;95544.84;5112973;28;20459;-55
2022/05/15 04:31:06;;;;;;;0.63;0.63;;;;;;;16.80;100.00;95537.69;5113035;28;20766;-55
2022/05/15 04:33:35;;;;;;;0.40;0.30;;;;;;;16.94;100.00;95530.38;5113065;28;20424;-56
2022/05/15 04:36:04;;;;;;;0.40;0.30;;;;;;;16.81;100.00;95533.91;5112885;28;21114;-55
2022/05/15 04:38:34;;;;;;;0.50;0.40;;;;;;;16.90;100.00;95540.13;5113381;28;20452;-56
2022/05/15 04:41:03;;;;;;;0.40;0.20;;;;;;;17.01;100.00;95538.78;5112756;28;20427;-56
2022/05/15 04:43:31;;;;;;;0.40;0.30;;;;;;;17.03;100.00;95542.75;5112434;28;20459;-57
2022/05/15 04:46:03;;;;;;;0.40;0.30;;;;;;;17.22;100.00;95534.53;5113186;28;20532;-56
2022/05/15 04:48:31;;;;;;;0.53;0.40;;;;;;;17.22;100.00;95534.53;5112760;28;20514;-56
2022/05/15 04:50:59;;;;;;;0.40;0.30;;;;;;;17.31;100.00;95530.00;5112744;28;20428;-57
2022/05/15 04:53:28;;;;;;;0.43;0.30;;;;;;;17.45;100.00;95536.09;5112694;28;20464;-56
2022/05/15 04:55:58;;;;;;;0.50;0.50;;;;;;;17.32;100.00;95539.63;5112600;28;20478;-57
2022/05/15 04:58:26;;;;;;;0.47;0.40;;;;;;;17.05;100.00;95542.44;5112766;28;20932;-56
2022/05/15 05:00:55;;;;;;;0.40;0.20;;;;;;;17.21;100.00;95530.25;5112904;28;20427;-57
2022/05/15 05:03:24;;;;;;;0.70;0.70;;;;;;;16.94;100.00;95549.13;5112171;28;20474;-56
2022/05/15 05:05:52;;;;;;;0.40;0.30;;;;;;;17.12;100.00;95532.09;5111681;28;20850;-56
2022/05/15 05:08:21;;;;;;;4.40;0.70;;;;;;;17.28;100.00;95544.00;5111759;28;20523;-56
2022/05/15 05:10:49;;;;;;;0.60;0.57;;;;;;;17.63;100.00;95537.78;5111930;28;20466;-56
2022/05/15 05:13:19;;;;;;;1.60;1.37;;;;;;;17.26;100.00;95542.72;5111770;28;20455;-56
2022/05/15 05:15:48;;;;;;;1.13;1.13;;;;;;;17.34;100.00;95540.13;5111599;28;20517;-56
2022/05/15 05:18:17;;;;;;;2.07;1.33;;;;;;;17.29;100.00;95548.28;5111769;28;20769;-57
2022/05/15 05:20:46;;;;;;;1.90;1.90;;;;;;;17.43;100.00;95538.28;5111737;28;20420;-56
2022/05/15 05:23:15;;;;;;;0.40;0.30;;;;;;;17.83;100.00;95549.09;5111884;28;20458;-57
2022/05/15 05:25:44;;;;;;;0.40;0.30;;;;;;;17.99;100.00;95551.03;5111827;28;20908;-56
2022/05/15 05:28:12;;;;;;;0.80;0.80;;;;;;;18.23;100.00;95540.72;5111883;28;20459;-57
2022/05/15 05:30:42;;;;;;;0.73;0.73;;;;;;;18.21;100.00;95494.63;5111693;28;20774;-58
2022/05/15 05:33:11;;;;;;;0.60;0.40;;;;;;;17.40;100.00;95506.75;5111680;28;20419;-58
2022/05/15 05:35:40;;;;;;;0.43;0.40;;;;;;;17.72;100.00;95554.72;5111933;28;20471;-57
2022/05/15 05:38:08;;;;;;;1.53;0.30;;;;;;;18.42;100.00;95553.09;5113290;28;20476;-57
2022/05/15 05:40:37;;;;;;;0.63;0.63;;;;;;;18.33;100.00;95548.47;5115802;28;20518;-57
2022/05/15 05:43:05;;;;;;;0.60;0.40;;;;;;;18.14;100.00;95504.25;5116309;28;20511;-58
2022/05/15 05:45:34;;;;;;;0.40;0.40;;;;;;;18.48;100.00;95554.53;5116099;28;21040;-57
2022/05/15 05:48:04;;;;;;;0.67;0.67;;;;;;;18.27;100.00;95503.31;5116279;28;20473;-56
2022/05/15 05:50:33;;;;;;;1.17;1.17;;;;;;;18.45;100.00;95550.53;5116543;28;20823;-57
2022/05/15 05:53:01;;;;;;;0.50;0.40;;;;;;;19.12;100.00;95544.78;5116032;28;20917;-56
2022/05/15 05:55:30;;;;;;;0.50;0.40;;;;;;;19.57;100.00;95548.72;5116001;28;20948;-56
2022/05/15 05:57:59;;;;;;;0.63;0.63;;;;;;;19.76;100.00;95502.63;5116167;28;20858;-56
2022/05/15 06:00:30;;;;;;;0.40;0.30;;;;;;;20.09;100.00;95541.25;5115990;28;20483;-55
2022/05/15 06:05:43;;;;;;;0.60;0.50;;;;;;;20.11;100.00;95491.38;5115578;28;20494;-55
2022/05/15 06:08:12;;;;;;;0.50;0.30;;;;;;;20.53;100.00;95545.31;5115563;28;20790;-55
2022/05/15 06:10:41;;;;;;;1.30;1.20;;;;;;;20.78;99.64;95520.91;5116080;28;20458;-56
2022/05/15 06:13:10;;;;;;;0.40;0.30;;;;;;;21.13;99.81;95543.00;5115801;28;20463;-56
2022/05/15 06:15:39;;;;;;;0.50;0.50;;;;;;;21.22;94.29;95492.53;5115264;28;20521;-57
2022/05/15 06:18:08;;;;;;;0.73;0.70;;;;;;;21.78;88.61;95530.66;5115489;28;20939;-56
2022/05/15 06:20:37;;;;;;;0.50;0.40;;;;;;;21.71;89.54;95525.78;5115911;28;20506;-56
2022/05/15 06:23:07;;;;;;;0.43;0.40;;;;;;;21.90;88.00;95498.31;5115601;28;20459;-56
2022/05/15 06:25:36;;;;;;;0.73;0.73;;;;;;;22.32;87.19;95529.34;5115519;28;20999;-56
2022/05/15 06:28:06;;;;;;;0.50;0.50;;;;;;;22.32;86.20;95526.66;5115458;28;20451;-56
2022/05/15 06:30:36;;;;;;;1.37;1.27;;;;;;;23.10;81.01;95523.59;5115348;28;20470;-56
2022/05/15 06:33:05;;;;;;;0.50;0.40;;;;;;;23.44;76.05;95519.56;5115366;28;20457;-56
2022/05/15 06:35:34;;;;;;;1.07;0.60;;;;;;;23.59;76.86;95503.38;5115558;28;20516;-54
2022/05/15 06:38:03;;;;;;;1.90;1.60;;;;;;;23.70;76.81;95522.59;5115471;28;20503;-54
2022/05/15 06:40:33;;;;;;;0.40;0.40;;;;;;;23.74;77.48;95499.09;5114204;28;20451;-54
2022/05/15 06:43:02;;;;;;;0.43;0.33;;;;;;;24.06;74.87;95519.63;5114845;28;20929;-54
2022/05/15 06:45:31;;;;;;;0.80;0.80;;;;;;;23.62;75.96;95475.63;5113510;28;20490;-54
2022/05/15 06:48:00;;;;;;;1.23;0.70;;;;;;;23.48;71.41;95353.50;5113525;28;20427;-54
2022/05/15 06:50:29;;;;;;;0.60;0.50;;;;;;;24.39;68.26;95517.38;5112013;28;20447;-54
2022/05/15 06:52:57;;;;;;;1.90;0.50;;;;;;;24.30;67.22;95508.66;5113233;28;20489;-54
2022/05/15 06:55:26;;;;;;;0.70;0.70;;;;;;;24.11;69.96;95511.28;5113501;28;20493;-54
2022/05/15 06:58:06;;;;;;;0.60;0.60;;;;;;;23.47;70.87;95481.78;5113619;28;20492;-54
2022/05/15 07:00:35;;;;;;;0.87;0.63;;;;;;;24.09;70.83;95520.88;5114384;28;20494;-53
2022/05/15 07:03:03;;;;;;;0.70;0.60;;;;;;;24.24;69.77;95471.34;5114556;28;20467;-54
2022/05/15 07:05:32;;;;;;;0.80;0.50;;;;;;;24.18;68.25;95510.69;5114480;28;20423;-53
2022/05/15 07:08:00;;;;;;;0.63;0.63;;;;;;;24.02;64.90;95462.69;5114643;28;20428;-53
2022/05/15 07:10:29;;;;;;;1.10;1.10;;;;;;;25.22;63.54;95506.03;5114498;28;20468;-54
2022/05/15 07:12:58;;;;;;;0.80;0.70;;;;;;;25.68;58.72;95503.44;5114430;28;20431;-54
2022/05/15 07:15:33;;;;;;;0.80;0.67;;;;;;;26.04;58.98;95500.19;5114246;28;20495;-55
2022/05/15 07:18:02;;;;;;;0.73;0.73;;;;;;;25.15;58.23;95497.75;5114413;28;20450;-56
2022/05/15 07:20:31;;;;;;;0.80;0.60;;;;;;;25.43;56.42;95491.31;5114707;28;20478;-55
2022/05/15 07:23:00;;;;;;;1.80;0.73;;;;;;;26.00;55.65;95496.66;5114160;28;20435;-55
2022/05/15 07:25:30;;;;;;;0.50;0.40;;;;;;;25.46;54.94;95444.47;5114306;28;20506;-55
2022/05/15 07:27:59;;;;;;;0.77;0.77;;;;;;;25.36;59.58;95464.03;5114335;28;20432;-55
2022/05/15 07:30:27;;;;;;;0.50;0.47;;;;;;;25.12;54.57;95410.91;5114300;28;20515;-56
2022/05/15 07:33:01;;;;;;;0.50;0.40;;;;;;;26.33;53.00;95496.03;5114178;28;20463;-56
2022/05/15 07:35:30;;;;;;;0.40;0.40;;;;;;;26.54;49.03;95461.00;5114140;28;20929;-56
2022/05/15 07:37:58;;;;;;;0.50;0.30;;;;;;;26.75;51.26;95482.25;5114199;28;20428;-56
2022/05/15 07:40:27;;;;;;;0.73;0.73;;;;;;;26.22;50.00;95486.94;5114076;28;20502;-56
2022/05/15 07:42:56;;;;;;;1.03;1.03;;;;;;;27.05;49.58;95475.72;5114302;28;20510;-56
2022/05/15 07:45:24;;;;;;;0.57;0.57;;;;;;;28.13;45.15;95473.75;5113821;28;20819;-55
2022/05/15 07:47:53;;;;;;;0.53;0.53;;;;;;;28.27;43.89;95471.91;5113720;28;20463;-56
2022/05/15 07:50:23;;;;;;;0.50;0.50;;;;;;;28.01;46.45;95482.19;5113753;28;20419;-56
2022/05/15 07:52:51;;;;;;;0.60;0.60;;;;;;;27.71;44.73;95450.41;5114031;28;20419;-56
2022/05/15 07:55:20;;;;;;;0.60;0.50;;;;;;;27.36;46.24;95481.88;5113944;28;20857;-56
2022/05/15 07:57:49;;;;;;;0.90;0.50;;;;;;;27.52;47.26;95488.72;5113606;28;20423;-57
2022/05/15 08:00:20;;;;;;;0.50;0.50;;;;;;;26.99;47.77;95463.56;5113944;28;20436;-57
2022/05/15 08:02:48;;;;;;;1.03;1.03;;;;;;;27.68;45.88;95481.09;5113722;27;20415;-56
2022/05/15 08:08:10;;;;;;;1.77;0.80;;;;;;;28.78;41.02;95476.56;5113137;28;20540;-57
2022/05/15 08:10:41;;;;;;;6.63;0.50;;;;;;;28.05;41.09;95448.41;5112999;28;20506;-56
2022/05/15 08:13:17;;;;;;;0.90;0.60;;;;;;;29.46;39.27;95467.50;5113320;28;20568;-55
2022/05/15 08:15:47;;;;;;;0.40;0.40;;;;;;;29.72;39.87;95474.59;5113168;28;20467;-55
2022/05/15 08:23:52;;;;;;;0.77;0.37;;;;;;;30.70;37.13;95471.91;5113519;28;20840;-56
2022/05/15 08:26:22;;;;;;;0.40;0.30;;;;;;;30.34;36.14;95475.03;5113058;28;20532;-56
2022/05/15 08:28:51;;;;;;;0.63;0.60;;;;;;;29.67;36.32;95418.41;5112982;28;20488;-56
2022/05/15 08:31:20;;;;;;;0.60;0.60;;;;;;;29.45;35.37;95474.13;5113268;28;20424;-56
2022/05/15 08:33:49;;;;;;;0.70;0.50;;;;;;;29.69;36.40;95470.69;5112885;28;20896;-56
2022/05/15 08:36:17;;;;;;;0.47;0.40;;;;;;;31.01;35.27;95467.56;5112706;28;20484;-56
2022/05/15 08:38:46;;;;;;;0.93;0.83;;;;;;;31.45;34.92;95447.81;5112997;28;20439;-55
2022/05/15 08:41:20;;;;;;;0.60;0.60;;;;;;;31.36;35.68;95464.66;5112955;28;20455;-56
2022/05/15 08:43:52;;;;;;;0.60;0.53;;;;;;;30.02;35.54;95464.13;5112753;28;20956;-56
2022/05/15 08:46:32;;;;;;;0.50;0.40;;;;;;;31.19;34.88;95459.28;5113028;28;20455;-55
2022/05/15 08:49:11;;;;;;;0.50;0.40;;;;;;;31.11;34.24;95409.22;5112800;28;20431;-55
2022/05/15 08:51:48;;;;;;;0.40;0.37;;;;;;;32.32;33.13;95456.63;5112746;28;20459;-56
2022/05/15 08:54:17;;;;;;;1.13;0.60;;;;;;;31.18;33.74;95453.00;5112650;28;20462;-55
2022/05/15 08:56:50;;;;;;;0.43;0.40;;;;;;;30.62;33.45;95453.94;5112791;28;20474;-55
2022/05/15 08:59:25;;;;;;;0.40;0.40;;;;;;;29.91;35.63;95425.06;5112968;28;20503;-55
2022/05/15 09:01:56;;;;;;;0.60;0.60;;;;;;;30.85;32.52;95442.53;5112646;28;20806;-55
2022/05/15 09:04:26;;;;;;;0.40;0.30;;;;;;;31.66;32.02;95442.22;5112937;28;20478;-55
2022/05/15 09:07:10;;;;;;;0.40;0.40;;;;;;;31.33;32.95;95437.28;5112301;28;20462;-56
2022/05/15 09:09:50;;;;;;;0.60;0.60;;;;;;;31.49;33.89;95445.06;5112180;28;20506;-55
2022/05/15 09:12:22;;;;;;;0.50;0.40;;;;;;;31.87;31.83;95435.81;5112544;28;20839;-55
2022/05/15 09:15:00;;;;;;;0.50;0.50;;;;;;;31.11;32.10;95378.31;5112312;28;20490;-55
2022/05/15 09:17:37;;;;;;;0.50;0.43;;;;;;;30.93;31.83;95364.72;5112752;28;20429;-55
2022/05/15 09:20:10;;;;;;;0.50;0.50;;;;;;;31.36;31.67;95429.06;5112674;28;20526;-55
2022/05/15 09:22:41;;;;;;;0.60;0.50;;;;;;;29.62;33.07;95366.88;5112725;28;20476;-55
2022/05/15 09:25:16;;;;;;;0.50;0.50;;;;;;;31.03;32.50;95424.13;5112319;28;20451;-55
2022/05/15 09:28:00;;;;;;;0.40;0.37;;;;;;;30.30;34.29;95371.13;5112466;28;20557;-55
2022/05/15 09:30:38;;;;;;;0.40;0.33;;;;;;;31.36;33.37;95389.91;5112145;28;20509;-55
2022/05/15 09:33:07;;;;;;;0.60;0.50;;;;;;;30.52;34.26;95393.78;5112297;28;20458;-55
2022/05/15 09:35:38;;;;;;;0.40;0.40;;;;;;;32.24;33.49;95415.94;5112107;28;20466;-55
2022/05/15 09:43:55;;;;;;;0.70;0.60;;;;;;;31.83;32.39;95402.13;5087248;28;20446;-55
2022/05/15 09:46:26;;;;;;;0.30;0.30;;;;;;;31.48;30.57;95359.34;5112074;28;20462;-55
2022/05/15 09:49:00;;;;;;;0.40;0.40;;;;;;;31.38;31.29;95413.00;5111826;28;20463;-55
2022/05/15 09:51:33;;;;;;;0.40;0.40;;;;;;;30.74;31.45;95412.47;5111790;28;20447;-55
2022/05/15 09:54:03;;;;;;;0.40;0.30;;;;;;;30.83;33.05;95412.06;5111606;28;20444;-55
2022/05/15 09:56:34;;;;;;;0.77;0.50;;;;;;;29.40;33.33;95411.69;5111834;28;20462;-55
2022/05/15 09:59:11;;;;;;;1.70;0.90;;;;;;;30.02;33.75;95404.78;5112004;28;20859;-55
2022/05/15 10:01:51;;;;;;;0.50;0.40;;;;;;;30.17;32.60;95348.91;5112204;28;20433;-54
2022/05/15 10:04:26;;;;;;;0.40;0.40;;;;;;;30.89;31.89;95396.00;5112252;28;20426;-54
2022/05/15 10:06:57;;;;;;;0.70;0.67;;;;;;;30.43;32.10;95385.22;5111839;28;20960;-54
2022/05/15 10:09:30;;;;;;;0.30;0.20;;;;;;;30.50;32.64;95379.72;5112084;28;20450;-54
2022/05/15 10:12:04;;;;;;;0.37;0.30;;;;;;;29.87;32.19;95372.38;5112023;28;20419;-54
2022/05/15 10:14:40;;;;;;;0.50;0.50;;;;;;;30.58;31.67;95389.47;5111619;28;20960;-54
2022/05/15 10:17:11;;;;;;;0.67;0.40;;;;;;;30.49;30.06;95380.88;5111899;28;20912;-54
2022/05/15 10:19:46;;;;;;;0.40;0.30;;;;;;;32.17;29.04;95381.13;5111852;28;20419;-54
2022/05/15 10:22:37;;;;;;;0.73;0.73;;;;;;;33.75;26.41;95372.94;5111926;28;20812;-55
2022/05/15 10:25:24;;;;;;;0.40;0.30;;;;;;;33.81;26.37;95368.53;5113297;28;20430;-54
2022/05/15 10:27:59;;;;;;;0.47;0.30;;;;;;;33.87;25.76;95368.84;5115442;28;20462;-53
2022/05/15 10:30:34;;;;;;;0.40;0.40;;;;;;;34.78;25.60;95343.63;5115850;28;20458;-53
2022/05/15 10:33:07;;;;;;;0.30;0.20;;;;;;;35.27;23.94;95336.31;5115499;28;20458;-53
2022/05/15 10:35:45;;;;;;;0.40;0.30;;;;;;;35.68;25.86;95361.38;5115321;28;20407;-53
2022/05/15 10:38:28;;;;;;;0.40;0.30;;;;;;;35.98;24.86;95355.50;5115713;28;20859;-53
2022/05/15 10:41:14;;;;;;;0.30;0.20;;;;;;;35.96;23.87;95355.16;5115207;28;20438;-53
2022/05/15 10:43:53;;;;;;;0.67;0.30;;;;;;;35.69;24.19;95332.59;5115239;28;20462;-53
2022/05/15 10:46:34;;;;;;;0.60;0.50;;;;;;;34.45;24.65;95351.72;5115452;28;20435;-54
2022/05/15 10:49:19;;;;;;;0.70;0.40;;;;;;;35.26;26.81;95357.59;5115402;28;20594;-54
2022/05/15 10:51:57;;;;;;;0.50;0.50;;;;;;;36.33;24.44;95344.81;5115330;28;20521;-53
2022/05/15 10:57:30;;;;;;;1.07;0.63;;;;;;;36.86;23.24;95339.38;5115287;28;20185;-53
2022/05/15 11:00:12;;;;;;;0.40;0.30;;;;;;;36.02;24.15;95328.63;5115167;28;20505;-53
2022/05/15 11:03:22;;;;;;;0.43;0.43;;;;;;;34.84;25.67;95339.94;5114921;28;20430;-53
2022/05/15 11:06:04;;;;;;;0.50;0.50;;;;;;;34.16;27.19;95334.16;5115070;28;20574;-54
2022/05/15 11:08:41;;;;;;;0.80;0.80;;;;;;;33.19;27.14;95336.03;5114868;28;20561;-53
2022/05/15 11:11:20;;;;;;;0.57;0.50;;;;;;;34.03;26.75;95335.16;5114925;28;20866;-54
2022/05/15 11:13:55;;;;;;;0.90;0.40;;;;;;;35.02;25.23;95334.06;5114817;28;20502;-53
2022/05/15 11:16:32;;;;;;;0.80;0.40;;;;;;;34.80;26.68;95325.47;5114387;28;20494;-53
2022/05/15 11:19:18;;;;;;;0.50;0.40;;;;;;;34.97;25.51;95260.97;5114280;28;20920;-53
2022/05/15 11:21:56;;;;;;;0.60;0.60;;;;;;;34.16;25.10;95306.66;5114338;28;20435;-53
2022/05/15 11:24:36;;;;;;;0.40;0.40;;;;;;;35.01;24.50;95300.25;5114699;28;20457;-53
2022/05/15 11:27:13;;;;;;;1.27;0.50;;;;;;;33.84;25.94;95309.16;5114549;28;20857;-54
2022/05/15 11:29:46;;;;;;;1.13;0.60;;;;;;;33.82;25.44;95306.84;5114393;28;20912;-54
2022/05/15 11:32:35;;;;;;;0.40;0.30;;;;;;;34.29;24.30;95293.03;5113800;28;20470;-54
2022/05/15 11:35:22;;;;;;;1.13;1.13;;;;;;;34.83;24.32;95304.56;5114106;28;20411;-54
2022/05/15 11:38:04;;;;;;;0.50;0.40;;;;;;;33.75;23.71;95293.19;5111189;28;20533;-54
2022/05/15 11:40:37;;;;;;;0.70;0.70;;;;;;;34.53;24.08;95302.03;5113551;28;20907;-55
2022/05/15 11:43:37;;;;;;;0.80;0.40;;;;;;;34.52;23.58;95303.22;5113526;28;20466;-55
2022/05/15 11:46:09;;;;;;;0.40;0.40;;;;;;;34.12;23.43;95294.94;5113786;28;20415;-55
2022/05/15 11:48:56;;;;;;;0.50;0.40;;;;;;;34.44;24.50;95297.84;5113697;28;20875;-54
2022/05/15 11:51:32;;;;;;;0.50;0.40;;;;;;;34.27;24.20;95300.94;5114012;28;20422;-54
2022/05/15 11:54:04;;;;;;;0.30;0.30;;;;;;;33.87;24.70;95289.09;5113811;28;20468;-54
2022/05/15 11:56:39;;;;;;;0.60;0.60;;;;;;;33.46;23.68;95234.38;5113861;28;20466;-54
2022/05/15 11:59:24;;;;;;;0.87;0.87;;;;;;;33.66;24.16;95284.72;5114006;28;20797;-55
2022/05/15 12:01:54;;;;;;;0.50;0.50;;;;;;;32.71;25.32;95288.06;5114051;28;20518;-55
2022/05/15 12:04:55;;;;;;;0.30;0.30;;;;;;;31.31;26.04;95273.34;5113577;28;20916;-55
2022/05/15 12:07:51;;;;;;;0.47;0.47;;;;;;;32.50;26.34;95289.84;5113589;28;20450;-55
2022/05/15 12:10:56;;;;;;;0.40;0.30;;;;;;;33.05;25.33;95294.28;5113604;28;20433;-54
2022/05/15 12:13:35;;;;;;;0.53;0.47;;;;;;;33.43;24.05;95279.19;5113454;28;20430;-56